createdAt,value
2022-08-08T00:02:30.296Z,48.57
2022-08-08T00:05:09.608Z,48.55
2022-08-08T00:07:44.182Z,49.24
2022-08-08T00:10:28.044Z,49.66
2022-08-08T00:14:17.528Z,49.46
2022-08-08T00:16:40.154Z,49.51
2022-08-08T00:19:46.619Z,49.73
2022-08-08T00:22:39.949Z,50.11
2022-08-08T00:25:20.961Z,49.79
2022-08-08T00:27:53.323Z,50.51
2022-08-08T00:30:24.333Z,50.72
2022-08-08T00:32:56.344Z,50.83
2022-08-08T00:35:51.604Z,51.12
2022-08-08T00:38:31.984Z,51.35
2022-08-08T00:41:54.919Z,51.44
2022-08-08T00:44:41.823Z,51.71
2022-08-08T00:48:05.311Z,52.20
2022-08-08T00:50:36.160Z,52.28
2022-08-08T00:53:15.701Z,52.53
2022-08-08T00:56:01.457Z,52.44
2022-08-08T00:59:06.200Z,52.65
2022-08-08T01:01:55.650Z,52.57
2022-08-08T01:05:42.580Z,52.90
2022-08-08T01:08:17.769Z,52.22
2022-08-08T01:11:26.010Z,52.38
2022-08-08T01:14:08.585Z,52.10
2022-08-08T01:16:55.241Z,52.56
2022-08-08T01:20:01.478Z,52.04
2022-08-08T01:22:44.285Z,52.21
2022-08-08T01:25:48.945Z,51.87
2022-08-08T01:28:32.890Z,51.79
2022-08-08T01:32:06.700Z,51.50
2022-08-08T01:34:20.135Z,50.85
2022-08-08T01:37:13.826Z,51.10
2022-08-08T01:39:54.330Z,50.77
2022-08-08T01:42:43.342Z,50.96
2022-08-08T01:45:32.759Z,51.36
2022-08-08T01:48:43.785Z,51.33
2022-08-08T01:52:02.230Z,50.73
2022-08-08T01:55:19.524Z,50.95
2022-08-08T01:57:33.881Z,50.81
2022-08-08T02:00:28.006Z,51.10
2022-08-08T02:03:57.766Z,50.87
2022-08-08T02:06:32.657Z,50.58
2022-08-08T02:09:18.608Z,50.33
2022-08-08T02:12:16.347Z,50.85
2022-08-08T02:15:17.086Z,50.67
2022-08-08T02:17:53.120Z,50.49
2022-08-08T02:21:18.305Z,50.39
2022-08-08T02:23:55.669Z,50.46
2022-08-08T02:26:28.727Z,50.59
2022-08-08T02:29:23.573Z,51.06
2022-08-08T02:32:22.882Z,51.32
2022-08-08T02:35:08.596Z,50.70
2022-08-08T02:37:52.168Z,51.21
2022-08-08T02:41:02.026Z,51.62
2022-08-08T02:44:39.045Z,51.89
2022-08-08T02:47:33.588Z,51.92
2022-08-08T02:50:23.330Z,51.97
2022-08-08T02:53:02.018Z,52.27
2022-08-08T02:56:06.088Z,52.97
2022-08-08T02:58:54.005Z,52.95
2022-08-08T03:01:49.995Z,52.42
2022-08-08T03:05:03.067Z,52.77
2022-08-08T03:07:41.598Z,52.93
2022-08-08T03:11:13.815Z,53.45
2022-08-08T03:15:56.776Z,53.27
2022-08-08T03:18:00.160Z,53.55
2022-08-08T03:20:51.805Z,52.96
2022-08-08T03:23:20.673Z,53.22
2022-08-08T03:25:50.362Z,53.33
2022-08-08T03:28:30.471Z,53.04
2022-08-08T03:31:22.141Z,53.18
2022-08-08T03:33:58.489Z,53.32
2022-08-08T03:36:30.575Z,52.77
2022-08-08T03:39:14.855Z,53.25
2022-08-08T03:42:27.937Z,52.75
2022-08-08T03:44:35.960Z,53.05
2022-08-08T03:47:07.031Z,53.30
2022-08-08T03:49:58.240Z,52.74
2022-08-08T03:52:30.199Z,52.42
2022-08-08T03:55:09.522Z,53.16
2022-08-08T03:58:33.576Z,52.94
2022-08-08T04:00:27.404Z,52.44
2022-08-08T04:03:11.168Z,52.82
2022-08-08T04:05:40.004Z,52.87
2022-08-08T04:08:33.549Z,52.43
2022-08-08T04:11:11.092Z,52.16
2022-08-08T04:14:03.807Z,52.67
2022-08-08T04:16:38.983Z,52.56
2022-08-08T04:19:24.004Z,52.48
2022-08-08T04:21:54.347Z,52.17
2022-08-08T04:24:30.717Z,52.32
2022-08-08T04:26:59.669Z,52.18
2022-08-08T04:29:37.109Z,51.40
2022-08-08T04:32:06.692Z,51.39
2022-08-08T04:34:49.199Z,51.66
2022-08-08T04:37:26.266Z,51.74
2022-08-08T04:40:06.676Z,51.50
2022-08-08T04:42:36.678Z,51.64
2022-08-08T04:45:07.357Z,51.61
2022-08-08T04:47:36.393Z,51.24
2022-08-08T04:50:23.640Z,50.94
2022-08-08T04:53:00.807Z,50.45
2022-08-08T04:55:47.309Z,50.16
2022-08-08T04:58:18.427Z,49.95
2022-08-08T05:00:47.561Z,49.47
2022-08-08T05:03:18.801Z,49.10
2022-08-08T05:06:12.675Z,48.30
2022-08-08T05:08:42.810Z,48.21
2022-08-08T05:11:18.684Z,48.17
2022-08-08T05:13:55.282Z,48.14
2022-08-08T05:16:54.930Z,47.93
2022-08-08T05:20:11.367Z,47.26
2022-08-08T05:22:08.432Z,47.73
2022-08-08T05:24:37.172Z,47.29
2022-08-08T05:27:05.197Z,46.46
2022-08-08T05:29:35.761Z,47.03
2022-08-08T05:32:06.460Z,46.17
2022-08-08T05:34:43.496Z,46.17
2022-08-08T05:37:18.696Z,46.24
2022-08-08T05:39:54.820Z,46.28
2022-08-08T05:42:42.945Z,45.67
2022-08-08T05:45:25.128Z,45.69
2022-08-08T05:48:00.249Z,45.69
2022-08-08T05:50:30.516Z,45.74
2022-08-08T05:53:54.892Z,45.52
2022-08-08T05:56:10.602Z,45.37
2022-08-08T05:58:54.184Z,45.38
2022-08-08T06:01:52.526Z,45.12
2022-08-08T06:04:23.606Z,45.31
2022-08-08T06:07:00.502Z,44.80
2022-08-08T06:09:58.813Z,44.32
2022-08-08T06:12:30.324Z,45.10
2022-08-08T06:15:02.988Z,44.54
2022-08-08T06:17:51.251Z,43.99
2022-08-08T06:20:22.944Z,44.17
2022-08-08T06:22:53.020Z,43.52
2022-08-08T06:25:33.214Z,43.21
2022-08-08T06:28:29.362Z,42.82
2022-08-08T06:30:58.680Z,42.91
2022-08-08T06:33:37.345Z,42.53
2022-08-08T06:36:41.384Z,43.24
2022-08-08T06:39:22.735Z,43.43
2022-08-08T06:41:56.249Z,42.78
2022-08-08T06:44:25.918Z,42.67
2022-08-08T06:46:58.050Z,42.66
2022-08-08T06:49:56.845Z,42.53
2022-08-08T06:52:12.820Z,42.72
2022-08-08T06:54:44.093Z,42.27
2022-08-08T06:57:15.631Z,41.75
2022-08-08T07:00:11.373Z,41.10
2022-08-08T07:02:34.220Z,40.92
2022-08-08T07:05:06.565Z,40.30
2022-08-08T07:08:17.659Z,41.10
2022-08-08T07:10:50.389Z,40.17
2022-08-08T07:13:22.922Z,39.95
2022-08-08T07:16:10.522Z,38.41
2022-08-08T07:18:55.855Z,37.91
2022-08-08T07:21:31.344Z,38.14
2022-08-08T07:24:12.878Z,37.95
2022-08-08T07:26:41.433Z,38.10
2022-08-08T07:29:20.669Z,39.23
2022-08-08T07:31:55.824Z,38.73
2022-08-08T07:34:31.288Z,38.29
2022-08-08T07:37:01.041Z,38.26
2022-08-08T07:39:45.509Z,37.93
2022-08-08T07:42:32.887Z,37.88
2022-08-08T07:45:00.497Z,38.55
2022-08-08T07:47:39.312Z,37.79
2022-08-08T07:50:07.068Z,37.56
2022-08-08T07:52:36.105Z,37.80
2022-08-08T07:55:28.588Z,38.08
2022-08-08T07:58:27.213Z,38.90
2022-08-08T08:01:05.435Z,38.82
2022-08-08T08:03:53.654Z,39.45
2022-08-08T08:06:27.269Z,39.11
2022-08-08T08:08:57.309Z,38.58
2022-08-08T08:11:38.101Z,37.75
2022-08-08T08:14:17.253Z,37.86
2022-08-08T08:16:50.336Z,37.25
2022-08-08T08:19:19.688Z,37.06
2022-08-08T08:21:57.454Z,36.31
2022-08-08T08:24:32.579Z,36.29
2022-08-08T08:27:02.670Z,36.60
2022-08-08T08:29:30.000Z,35.71
2022-08-08T08:32:03.224Z,35.26
2022-08-08T08:34:33.557Z,34.38
2022-08-08T08:37:08.320Z,34.75
2022-08-08T08:40:01.919Z,34.37
2022-08-08T08:42:31.408Z,34.22
2022-08-08T08:45:21.477Z,34.47
2022-08-08T08:47:58.145Z,34.51
2022-08-08T08:50:31.887Z,34.29
2022-08-08T08:53:55.115Z,34.62
2022-08-08T08:56:01.927Z,33.94
2022-08-08T08:58:46.523Z,34.56
2022-08-08T09:01:19.331Z,34.47
2022-08-08T09:03:50.850Z,34.81
2022-08-08T09:06:28.399Z,33.91
2022-08-08T09:09:02.916Z,34.23
2022-08-08T09:11:33.977Z,33.96
2022-08-08T09:14:02.989Z,34.09
2022-08-08T09:16:33.340Z,33.62
2022-08-08T09:19:00.258Z,33.87
2022-08-08T09:21:56.004Z,34.02
2022-08-08T09:24:20.011Z,33.84
2022-08-08T09:26:56.505Z,33.98
2022-08-08T09:29:25.346Z,33.52
2022-08-08T09:32:03.258Z,34.43
2022-08-08T09:34:35.877Z,33.37
2022-08-08T09:37:39.522Z,33.11
2022-08-08T09:39:59.789Z,33.05
2022-08-08T09:42:44.295Z,32.48
2022-08-08T09:45:54.752Z,32.41
2022-08-08T09:48:22.012Z,32.60
2022-08-08T09:50:57.088Z,33.26
2022-08-08T09:53:56.490Z,32.76
2022-08-08T09:56:25.462Z,31.93
2022-08-08T09:59:31.978Z,32.83
2022-08-08T10:01:58.200Z,32.40
2022-08-08T10:04:42.006Z,31.72
2022-08-08T10:07:16.420Z,32.03
2022-08-08T10:10:00.860Z,31.93
2022-08-08T10:12:54.111Z,30.99
2022-08-08T10:15:29.284Z,31.40
2022-08-08T10:18:06.233Z,31.39
2022-08-08T10:20:57.752Z,31.50
2022-08-08T10:23:45.059Z,32.19
2022-08-08T10:26:58.665Z,31.35
2022-08-08T10:29:43.873Z,31.04
2022-08-08T10:32:40.404Z,31.05
2022-08-08T10:36:12.587Z,30.63
2022-08-08T10:38:09.311Z,30.45
2022-08-08T10:40:42.778Z,29.91
2022-08-08T10:43:09.705Z,29.55
2022-08-08T10:45:56.355Z,28.13
2022-08-08T10:48:57.121Z,29.37
2022-08-08T10:51:31.187Z,30.08
2022-08-08T10:54:01.910Z,30.04
2022-08-08T10:56:36.013Z,29.82
2022-08-08T10:59:14.041Z,29.43
2022-08-08T11:01:49.464Z,29.05
2022-08-08T11:04:29.410Z,29.11
2022-08-08T11:07:00.750Z,29.10
2022-08-08T11:09:32.340Z,28.83
2022-08-08T11:12:04.847Z,29.13
2022-08-08T11:14:53.416Z,29.70
2022-08-08T11:17:58.227Z,29.42
2022-08-08T11:20:13.229Z,29.67
2022-08-08T11:22:41.031Z,29.15
2022-08-08T11:25:14.383Z,29.67
2022-08-08T11:27:44.550Z,28.94
2022-08-08T11:30:24.535Z,29.33
2022-08-08T11:32:56.641Z,29.00
2022-08-08T11:35:37.669Z,28.70
2022-08-08T11:38:39.340Z,29.79
2022-08-08T11:40:57.254Z,29.19
2022-08-08T11:43:38.459Z,28.78
2022-08-08T11:46:17.796Z,28.88
2022-08-08T11:48:47.098Z,28.51
2022-08-08T11:51:29.470Z,28.61
2022-08-08T11:54:04.170Z,29.26
2022-08-08T11:56:35.587Z,29.33
2022-08-08T11:59:11.863Z,28.71
2022-08-08T12:01:39.243Z,29.48
2022-08-08T12:04:10.437Z,29.10
2022-08-08T12:06:39.459Z,28.81
2022-08-08T12:09:17.261Z,28.60
2022-08-08T12:11:49.464Z,28.40
2022-08-08T12:14:29.378Z,27.83
2022-08-08T12:16:57.242Z,28.51
2022-08-08T12:19:37.739Z,29.17
2022-08-08T12:22:20.636Z,29.11
2022-08-08T12:24:54.237Z,28.68
2022-08-08T12:27:26.870Z,28.28
2022-08-08T12:30:02.135Z,28.65
2022-08-08T12:32:31.002Z,28.42
2022-08-08T12:35:04.129Z,28.91
2022-08-08T12:37:41.334Z,28.25
2022-08-08T12:40:23.049Z,28.73
2022-08-08T12:42:52.055Z,29.32
2022-08-08T12:45:54.237Z,28.63
2022-08-08T12:48:36.550Z,28.53
2022-08-08T12:51:11.165Z,28.52
2022-08-08T12:53:58.766Z,28.57
2022-08-08T12:56:40.058Z,28.58
2022-08-08T12:59:36.703Z,28.81
2022-08-08T13:02:09.737Z,28.93
2022-08-08T13:04:36.888Z,28.86
2022-08-08T13:07:04.826Z,28.68
2022-08-08T13:10:04.843Z,28.77
2022-08-08T13:12:46.941Z,28.02
2022-08-08T13:15:17.412Z,29.05
2022-08-08T13:18:08.973Z,28.57
2022-08-08T13:20:34.276Z,28.81
2022-08-08T13:23:30.855Z,29.52
2022-08-08T13:25:50.425Z,28.75
2022-08-08T13:28:31.884Z,29.08
2022-08-08T13:31:01.817Z,28.46
2022-08-08T13:33:42.689Z,28.88
2022-08-08T13:36:11.052Z,28.60
2022-08-08T13:38:39.861Z,28.56
2022-08-08T13:41:07.014Z,27.95
2022-08-08T13:43:47.673Z,28.42
2022-08-08T13:46:26.823Z,27.24
2022-08-08T13:49:11.734Z,27.60
2022-08-08T13:51:58.137Z,28.24
2022-08-08T13:54:29.292Z,28.86
2022-08-08T13:57:11.317Z,29.81
2022-08-08T13:59:49.052Z,29.53
2022-08-08T14:02:31.081Z,28.72
2022-08-08T14:05:21.673Z,29.21
2022-08-08T14:07:52.198Z,29.04
2022-08-08T14:10:32.985Z,28.08
2022-08-08T14:13:09.870Z,28.47
2022-08-08T14:15:50.301Z,28.49
2022-08-08T14:18:35.007Z,27.71
2022-08-08T14:21:08.064Z,27.68
2022-08-08T14:24:06.871Z,28.26
2022-08-08T14:26:31.897Z,27.04
2022-08-08T14:29:01.727Z,27.83
2022-08-08T14:32:05.976Z,28.26
2022-08-08T14:34:23.273Z,29.00
2022-08-08T14:36:54.864Z,28.55
2022-08-08T14:39:24.971Z,28.53
2022-08-08T14:42:09.591Z,28.27
2022-08-08T14:44:39.428Z,28.80
2022-08-08T14:47:21.052Z,29.00
2022-08-08T14:50:02.536Z,29.36
2022-08-08T14:52:55.084Z,28.92
2022-08-08T14:55:35.353Z,29.14
2022-08-08T14:58:12.076Z,29.80
2022-08-08T15:00:44.458Z,29.76
2022-08-08T15:03:14.743Z,29.43
2022-08-08T15:05:54.619Z,28.95
2022-08-08T15:08:34.186Z,28.81
2022-08-08T15:11:06.764Z,29.67
2022-08-08T15:13:39.969Z,30.23
2022-08-08T15:16:11.730Z,29.98
2022-08-08T15:18:50.001Z,29.89
2022-08-08T15:21:19.292Z,29.02
2022-08-08T15:23:51.528Z,29.06
2022-08-08T15:26:25.438Z,29.54
2022-08-08T15:28:55.367Z,29.75
2022-08-08T15:31:48.932Z,29.96
2022-08-08T15:34:18.677Z,30.19
2022-08-08T15:37:03.307Z,30.18
2022-08-08T15:39:38.492Z,30.81
2022-08-08T15:42:10.232Z,30.25
2022-08-08T15:44:42.040Z,30.08
2022-08-08T15:47:15.778Z,30.37
2022-08-08T15:49:47.697Z,30.58
2022-08-08T15:52:21.597Z,31.46
2022-08-08T15:54:52.192Z,32.81
2022-08-08T15:57:19.949Z,33.87
2022-08-08T16:00:06.177Z,33.64
2022-08-08T16:02:35.611Z,34.67
2022-08-08T16:05:04.050Z,35.52
2022-08-08T16:07:52.136Z,36.17
2022-08-08T16:13:20.820Z,36.36
2022-08-08T16:13:30.834Z,37.05
2022-08-08T16:15:57.259Z,36.96
2022-08-08T16:18:26.714Z,37.21
2022-08-08T16:20:53.499Z,37.07
2022-08-08T16:23:26.983Z,37.49
2022-08-08T16:25:58.180Z,37.63
2022-08-08T16:28:34.286Z,37.90
2022-08-08T16:31:06.456Z,38.59
2022-08-08T16:33:38.626Z,38.81
2022-08-08T16:36:13.012Z,38.15
2022-08-08T16:38:47.636Z,38.72
2022-08-08T16:41:22.469Z,38.75
2022-08-08T16:43:51.652Z,38.76
2022-08-08T16:46:38.560Z,39.10
2022-08-08T16:49:08.078Z,38.96
2022-08-08T16:55:00.057Z,38.96
2022-08-08T16:55:05.348Z,38.85
2022-08-08T16:57:23.514Z,38.76
2022-08-08T17:00:08.927Z,38.96
2022-08-08T17:02:39.334Z,38.32
2022-08-08T17:31:52.046Z,38.52
2022-08-08T17:34:36.071Z,39.29
2022-08-08T17:37:11.126Z,39.45
2022-08-08T17:40:04.451Z,39.39
2022-08-08T17:42:26.766Z,39.22
2022-08-08T17:44:54.191Z,39.41
2022-08-08T17:47:27.633Z,40.16
2022-08-08T17:50:01.418Z,39.96
2022-08-08T17:52:34.155Z,39.19
2022-08-08T17:55:05.739Z,40.25
2022-08-08T17:57:49.571Z,39.99
2022-08-08T18:00:19.731Z,40.03
2022-08-08T18:03:08.991Z,40.18
2022-08-08T18:19:02.615Z,47.36
2022-08-08T18:22:00.055Z,48.47
2022-08-08T18:24:21.230Z,49.08
2022-08-08T18:26:54.772Z,49.85
2022-08-08T18:29:29.739Z,50.18
2022-08-08T18:31:58.715Z,51.33
2022-08-08T18:34:27.377Z,51.81
2022-08-08T18:36:55.988Z,52.17
2022-08-08T18:39:28.634Z,52.32
2022-08-08T18:42:03.286Z,52.73
2022-08-08T18:44:33.134Z,52.71
2022-08-08T18:47:02.474Z,51.43
2022-08-08T18:49:32.350Z,49.93
2022-08-08T18:52:08.888Z,49.62
2022-08-08T18:54:45.864Z,49.37
2022-08-08T18:57:27.287Z,48.90
2022-08-08T18:59:54.034Z,49.32
2022-08-08T19:02:28.341Z,49.53
2022-08-08T19:04:56.262Z,49.17
2022-08-08T19:07:25.751Z,49.45
2022-08-08T19:10:14.786Z,49.78
2022-08-08T19:12:44.713Z,50.20
2022-08-08T19:15:23.607Z,50.50
2022-08-08T19:18:30.853Z,50.52
2022-08-08T19:20:46.452Z,50.77
2022-08-08T19:23:13.859Z,51.05
2022-08-08T19:26:20.327Z,51.15
2022-08-08T19:28:28.732Z,51.46
2022-08-08T19:31:03.453Z,51.70
2022-08-08T19:33:51.525Z,51.77
2022-08-08T19:36:25.346Z,51.56
2022-08-08T19:38:56.432Z,52.11
2022-08-08T19:41:33.617Z,51.92
2022-08-08T19:44:03.819Z,52.17
2022-08-08T19:46:33.360Z,52.58
2022-08-08T19:49:00.771Z,52.66
2022-08-08T19:51:34.694Z,52.49
2022-08-08T19:54:08.172Z,53.06
2022-08-08T19:56:40.049Z,52.76
2022-08-08T19:59:11.740Z,53.00
2022-08-08T20:02:01.508Z,53.56
2022-08-08T20:04:28.040Z,53.30
2022-08-08T20:06:56.967Z,53.30
2022-08-08T20:09:24.969Z,53.63
2022-08-08T20:11:52.166Z,53.01
2022-08-08T20:14:35.621Z,53.30
2022-08-08T20:17:05.014Z,53.38
2022-08-08T20:19:33.513Z,53.57
2022-08-08T20:22:13.258Z,53.14
2022-08-08T20:24:48.572Z,53.31
2022-08-08T20:27:20.511Z,53.43
2022-08-08T20:29:55.894Z,53.39
2022-08-08T20:32:29.725Z,53.96
2022-08-08T20:35:01.603Z,54.15
2022-08-08T20:37:46.797Z,53.93
2022-08-08T20:40:33.457Z,53.64
2022-08-08T20:43:16.278Z,54.31
2022-08-08T20:45:57.418Z,53.72
2022-08-08T20:48:30.107Z,54.03
2022-08-08T20:50:56.993Z,53.83
2022-08-08T20:54:01.039Z,53.16
2022-08-08T20:56:11.700Z,53.10
2022-08-08T20:58:40.831Z,53.50
2022-08-08T21:01:20.169Z,53.54
2022-08-08T21:03:55.830Z,54.20
2022-08-08T21:06:51.880Z,54.31
2022-08-08T21:09:15.797Z,54.58
2022-08-08T21:11:51.688Z,54.57
2022-08-08T21:14:30.249Z,55.21
2022-08-08T21:17:00.845Z,55.07
2022-08-08T21:19:44.304Z,54.92
2022-08-08T21:22:14.071Z,55.39
2022-08-08T21:24:52.560Z,55.94
2022-08-08T21:28:05.065Z,56.08
2022-08-08T21:30:19.771Z,56.46
2022-08-08T21:32:52.133Z,56.23
2022-08-08T21:36:17.740Z,56.98
2022-08-08T21:38:17.076Z,57.19
2022-08-08T21:40:56.218Z,57.10
2022-08-08T21:43:34.200Z,57.68
2022-08-08T21:48:06.683Z,58.03
2022-08-08T21:48:57.346Z,58.56
2022-08-08T21:54:18.014Z,59.38
2022-08-08T21:54:32.786Z,59.87
2022-08-08T21:57:02.732Z,60.55
2022-08-08T22:00:02.784Z,60.92
2022-08-08T22:02:23.484Z,61.99
2022-08-08T22:04:56.057Z,62.01
2022-08-08T22:07:34.644Z,62.79
2022-08-08T22:10:09.933Z,63.76
2022-08-08T22:12:45.653Z,64.86
2022-08-08T22:15:13.906Z,65.55
2022-08-08T22:17:45.786Z,65.50
2022-08-08T22:20:23.443Z,66.21
2022-08-08T22:22:52.427Z,66.42
2022-08-08T22:25:25.822Z,66.56
2022-08-08T22:28:02.762Z,66.75
2022-08-08T22:30:31.827Z,67.02
2022-08-08T22:33:01.019Z,67.60
2022-08-08T22:36:04.174Z,67.96
2022-08-08T22:38:17.451Z,68.22
2022-08-08T22:40:45.153Z,68.44
2022-08-08T22:43:15.695Z,69.01
2022-08-08T22:45:43.836Z,68.74
2022-08-08T22:48:13.976Z,68.93
2022-08-08T22:50:40.922Z,69.01
2022-08-08T22:54:33.026Z,69.01
2022-08-08T22:55:58.517Z,69.76
2022-08-08T22:58:34.394Z,69.71
2022-08-08T23:01:16.775Z,69.60
2022-08-08T23:03:58.489Z,69.80
2022-08-08T23:06:25.935Z,70.28
2022-08-08T23:08:58.881Z,70.31
2022-08-08T23:12:18.846Z,70.03
2022-08-08T23:14:19.543Z,70.08
2022-08-08T23:16:56.105Z,70.13
2022-08-08T23:19:25.263Z,70.14
2022-08-08T23:21:52.367Z,70.07
2022-08-08T23:24:22.222Z,70.51
2022-08-08T23:26:55.338Z,70.54
2022-08-08T23:29:25.438Z,70.24
2022-08-08T23:31:52.606Z,70.31
2022-08-08T23:34:20.089Z,70.33
2022-08-08T23:36:47.955Z,69.76
2022-08-08T23:39:15.812Z,69.86
2022-08-08T23:41:47.177Z,69.69
2022-08-08T23:44:18.720Z,69.76
2022-08-08T23:49:02.236Z,69.87
2022-08-08T23:49:33.738Z,69.90
2022-08-08T23:52:06.838Z,69.66
2022-08-08T23:54:43.339Z,69.85
2022-08-08T23:57:27.639Z,69.68
